»·PEaware :: PRD69 KLAS-KBIL

PRD69 :: KLAS-KBIL

FLIGHT INFORMATION

Flight Status: Arrived
Operator: Unknown
More flights by this operator :: More flights under this callsign
Pilot: Ryan B. (8502)
Aircraft: Unknown
(B727)
More flights by this aircraft type
Origin: KLAS McCarran Intl
United States
Destination: KBIL Billings Logan Intl
United States
More flights between these airports :: More routes between these airports
Route: +LAS5 MLF OGD DNW
File this flight plan on PilotEdge
Remarks:
Altitude:
(Current/Filed)
33,000ft
Speed:
(Current/Filed)
400kts
Departed: 29-Sep-18 05:41 PM
Arrived: 29-Sep-18 07:11 PM
Distance/Time
Traveled:
655nm/1:29
Distance/Time
To Go:
Arrived

Flight Plot

Page will automatically refresh every two minutes.

Flight plan parsing failed; only flown route is shown


Map Options




Map Legend


Flown Route
Filed Route
Departure Airport
Arrival Airport
Navaid (VOR, NDB)
Fix

Horizontal Profiles

Position Reports

Time Latitude Longitude Heading Altitude Ground
Speed
29-Sep-18 17:17 36.084255 -115.169067 90 2168ft 0kts
29-Sep-18 17:18 36.084255 -115.169067 90 2168ft 0kts
29-Sep-18 17:19 36.084255 -115.169067 90 2168ft 0kts
29-Sep-18 17:20 36.084255 -115.169067 90 2168ft 0kts
29-Sep-18 17:21 36.084255 -115.169067 90 2168ft 0kts
29-Sep-18 17:22 36.084255 -115.169067 90 2168ft 0kts
29-Sep-18 17:23 36.084255 -115.169067 90 2168ft 0kts
29-Sep-18 17:24 36.084255 -115.169067 90 2168ft 0kts
29-Sep-18 17:25 36.084255 -115.169067 90 2168ft 0kts
29-Sep-18 17:26 36.084255 -115.169067 90 2168ft 0kts
29-Sep-18 17:27 36.084255 -115.169067 90 2168ft 0kts
29-Sep-18 17:28 36.084255 -115.169067 90 2168ft 0kts
29-Sep-18 17:29 36.084255 -115.169067 90 2168ft 0kts
29-Sep-18 17:30 36.084255 -115.169067 90 2168ft 0kts
29-Sep-18 17:31 36.084255 -115.169067 90 2168ft 0kts
29-Sep-18 17:32 36.084255 -115.169067 90 2168ft 0kts
29-Sep-18 17:33 36.084255 -115.169067 90 2168ft 0kts
29-Sep-18 17:34 36.084255 -115.169067 90 2168ft 0kts
29-Sep-18 17:35 36.084255 -115.169041 90 2168ft 0kts
29-Sep-18 17:36 36.084255 -115.169041 90 2168ft 0kts
29-Sep-18 17:37 36.084255 -115.169040 90 2168ft 0kts
29-Sep-18 17:38 36.084647 -115.168320 30 2165ft 10kts
29-Sep-18 17:39 36.088347 -115.165252 24 2145ft 23kts
29-Sep-18 17:40 36.095988 -115.160923 22 2110ft 37kts
29-Sep-18 17:41 36.099633 -115.158424 58 2096ft 5kts
29-Sep-18 17:42 36.098999 -115.156820 206 2092ft 20kts
29-Sep-18 17:43 36.072032 -115.173125 211 3214ft 142kts
29-Sep-18 17:44 36.037074 -115.198223 214 5517ft 153kts
29-Sep-18 17:45 36.011849 -115.238481 231 7063ft 161kts
29-Sep-18 17:46 35.976352 -115.297787 230 7878ft 255kts
29-Sep-18 17:47 35.927823 -115.350306 181 11982ft 257kts
29-Sep-18 17:48 35.881183 -115.272908 90 14195ft 375kts
29-Sep-18 17:49 35.931039 -115.148886 61 17367ft 429kts
29-Sep-18 17:50 35.993802 -115.018375 61 19780ft 475kts
29-Sep-18 17:51 36.066519 -114.865013 61 20164ft 540kts
29-Sep-18 17:52 36.140499 -114.708779 61 22761ft 539kts
29-Sep-18 17:53 36.214000 -114.553533 61 27472ft 484kts
29-Sep-18 17:54 36.285050 -114.403535 61 28638ft 512kts
29-Sep-18 17:55 36.357696 -114.249650 61 30197ft 527kts
29-Sep-18 17:56 36.432134 -114.091483 61 31603ft 539kts
29-Sep-18 17:57 36.495290 -113.922339 75 32867ft 544kts
29-Sep-18 17:58 36.528942 -113.735817 86 33004ft 561kts
29-Sep-18 17:59 36.598352 -113.560924 39 32898ft 588kts
29-Sep-18 18:00 36.745254 -113.493436 0 32963ft 567kts
29-Sep-18 18:01 36.898874 -113.454168 10 32921ft 573kts
29-Sep-18 18:02 37.053593 -113.408506 9 32896ft 574kts
29-Sep-18 18:03 37.207927 -113.363091 9 32886ft 574kts
29-Sep-18 18:04 37.362307 -113.315538 10 32932ft 571kts
29-Sep-18 18:05 37.515693 -113.269623 10 33042ft 570kts
29-Sep-18 18:06 37.669472 -113.223297 10 33048ft 570kts
29-Sep-18 18:07 37.815409 -113.179243 10 33287ft 573kts
29-Sep-18 18:08 37.969638 -113.132332 10 34328ft 569kts
29-Sep-18 18:09 38.122593 -113.085841 9 34959ft 569kts
29-Sep-18 18:10 38.276212 -113.039098 10 34969ft 569kts
29-Sep-18 18:11 38.428981 -112.988926 12 34973ft 570kts
29-Sep-18 18:12 38.581084 -112.933832 12 34969ft 570kts
29-Sep-18 18:13 38.732966 -112.878861 12 34970ft 570kts
29-Sep-18 18:14 38.885107 -112.823561 12 34971ft 570kts
29-Sep-18 18:15 39.037496 -112.767823 11 34851ft 573kts
29-Sep-18 18:16 39.190358 -112.712365 11 34835ft 574kts
29-Sep-18 18:17 39.343528 -112.655765 11 34835ft 575kts
29-Sep-18 18:18 39.496789 -112.599216 11 34835ft 575kts
29-Sep-18 18:19 39.650584 -112.542056 11 34838ft 576kts
29-Sep-18 18:20 39.804218 -112.484648 11 34849ft 577kts
29-Sep-18 18:21 39.957567 -112.427027 11 34917ft 576kts
29-Sep-18 18:22 40.112138 -112.386496 4 34926ft 568kts
29-Sep-18 18:23 40.261996 -112.349136 6 34927ft 570kts
29-Sep-18 18:24 40.416734 -112.307742 6 34897ft 569kts
29-Sep-18 18:25 40.571457 -112.267856 6 34895ft 569kts
29-Sep-18 18:26 40.725776 -112.227909 6 34912ft 569kts
29-Sep-18 18:27 40.881283 -112.187574 6 34891ft 570kts
29-Sep-18 18:28 41.036205 -112.147163 6 34864ft 571kts
29-Sep-18 18:29 41.187850 -112.107768 6 34852ft 570kts
29-Sep-18 18:30 41.340290 -112.053226 24 34806ft 580kts
29-Sep-18 18:31 41.480544 -111.950205 22 34846ft 577kts
29-Sep-18 18:32 41.615871 -111.860663 22 34863ft 578kts
29-Sep-18 18:33 41.759128 -111.765588 22 34864ft 580kts
29-Sep-18 18:34 41.901695 -111.670535 22 34864ft 581kts
29-Sep-18 18:35 42.045356 -111.574235 22 34868ft 582kts
29-Sep-18 18:36 42.187771 -111.479628 21 34864ft 581kts
29-Sep-18 18:37 42.307615 -111.398233 22 34861ft 581kts
29-Sep-18 18:38 42.474768 -111.283162 23 34905ft 579kts
29-Sep-18 18:39 42.616827 -111.185995 22 34983ft 578kts
29-Sep-18 18:40 42.759693 -111.087615 22 35053ft 579kts
29-Sep-18 18:41 42.879209 -111.004878 22 35050ft 580kts
29-Sep-18 18:42 43.022478 -110.905246 20 35051ft 581kts
29-Sep-18 18:43 43.188237 -110.790507 20 35028ft 581kts
29-Sep-18 18:44 43.308132 -110.706205 20 35023ft 582kts
29-Sep-18 18:45 43.451643 -110.604975 20 35005ft 583kts
29-Sep-18 18:46 43.595639 -110.502813 20 35002ft 583kts
29-Sep-18 18:47 43.738879 -110.400595 20 35003ft 583kts
29-Sep-18 18:48 43.874491 -110.303834 11 34963ft 570kts
29-Sep-18 18:49 44.018064 -110.216443 25 35000ft 581kts
29-Sep-18 18:50 44.154188 -110.101016 25 35077ft 581kts
29-Sep-18 18:51 44.291621 -109.982754 25 35077ft 584kts
29-Sep-18 18:52 44.428925 -109.863474 25 35095ft 585kts
29-Sep-18 18:53 44.566529 -109.743239 25 34260ft 582kts
29-Sep-18 18:54 44.703371 -109.623031 26 32625ft 582kts
29-Sep-18 18:55 44.839640 -109.502624 26 30486ft 581kts
29-Sep-18 18:56 44.965124 -109.390533 27 27813ft 533kts
29-Sep-18 18:57 45.082482 -109.284451 26 24935ft 477kts
29-Sep-18 18:58 45.188705 -109.189970 26 21839ft 439kts
29-Sep-18 18:59 45.287963 -109.100611 27 18562ft 410kts
29-Sep-18 19:00 45.384690 -109.039839 10 15451ft 373kts
29-Sep-18 19:01 45.482077 -109.004372 10 12125ft 353kts
29-Sep-18 19:02 45.571297 -108.974235 10 10242ft 293kts
29-Sep-18 19:03 45.639343 -108.950454 10 8959ft 229kts
29-Sep-18 19:04 45.700585 -108.930192 10 7461ft 226kts
29-Sep-18 19:05 45.761982 -108.910379 10 6384ft 226kts
29-Sep-18 19:06 45.816708 -108.893415 10 5973ft 184kts
29-Sep-18 19:07 45.858723 -108.875086 53 5965ft 154kts
29-Sep-18 19:08 45.861564 -108.811228 84 6009ft 170kts
29-Sep-18 19:09 45.862040 -108.741177 93 5970ft 175kts
29-Sep-18 19:10 45.863822 -108.697181 44 6024ft 151kts
29-Sep-18 19:11 45.846573 -108.635652 124 6027ft 201kts
29-Sep-18 19:12 45.818710 -108.577225 101 4229ft 165kts
29-Sep-18 19:13 45.807193 -108.535013 112 3529ft 38kts
29-Sep-18 19:14 45.803601 -108.529749 232 3509ft 11kts
29-Sep-18 19:15 45.803528 -108.530134 276 3510ft 0kts

Navigation Log

Ident Type
Flight plan parsing failed, navigation log unavailable